sensor_id;sensor_type;location;lat;lon;timestamp;pressure;altitude;pressure_sealevel;temperature;humidity
54146;BME280;40052;49.422;7.738;2022-09-09T00:02:01;73817.94;;;-145.25;73.97
54146;BME280;40052;49.422;7.738;2022-09-09T00:04:30;73815.94;;;-145.25;73.88
54146;BME280;40052;49.422;7.738;2022-09-09T00:10:14;73779.88;;;-145.25;73.26
54146;BME280;40052;49.422;7.738;2022-09-09T00:15:44;73779.88;;;-145.25;72.77
54146;BME280;40052;49.422;7.738;2022-09-09T00:18:17;73777.88;;;-145.25;72.81
54146;BME280;40052;49.422;7.738;2022-09-09T00:20:53;73769.88;;;-145.25;72.46
54146;BME280;40052;49.422;7.738;2022-09-09T00:28:23;73769.88;;;-145.25;72.64
54146;BME280;40052;49.422;7.738;2022-09-09T00:30:50;73781.88;;;-145.25;72.78
54146;BME280;40052;49.422;7.738;2022-09-09T00:33:19;73787.91;;;-145.25;72.75
54146;BME280;40052;49.422;7.738;2022-09-09T00:35:51;73779.88;;;-145.25;72.76
54146;BME280;40052;49.422;7.738;2022-09-09T00:38:33;73771.88;;;-145.25;72.62
54146;BME280;40052;49.422;7.738;2022-09-09T00:43:37;73799.91;;;-145.25;73.20
54146;BME280;40052;49.422;7.738;2022-09-09T00:46:38;73801.91;;;-145.25;73.32
54146;BME280;40052;49.422;7.738;2022-09-09T00:49:21;73813.94;;;-145.25;73.83
54146;BME280;40052;49.422;7.738;2022-09-09T00:57:29;73819.94;;;-145.25;74.53
54146;BME280;40052;49.422;7.738;2022-09-09T01:03:04;73817.94;;;-145.25;74.56
54146;BME280;40052;49.422;7.738;2022-09-09T01:11:05;73807.94;;;-145.25;73.84
54146;BME280;40052;49.422;7.738;2022-09-09T01:13:38;73819.94;;;-145.25;74.54
54146;BME280;40052;49.422;7.738;2022-09-09T01:16:08;73815.94;;;-145.25;74.44
54146;BME280;40052;49.422;7.738;2022-09-09T01:18:40;73813.94;;;-145.25;74.12
54146;BME280;40052;49.422;7.738;2022-09-09T01:21:30;73809.94;;;-145.25;74.05
54146;BME280;40052;49.422;7.738;2022-09-09T01:26:44;73797.91;;;-145.25;73.94
54146;BME280;40052;49.422;7.738;2022-09-09T01:29:15;73803.91;;;-145.25;73.76
54146;BME280;40052;49.422;7.738;2022-09-09T01:31:43;73807.94;;;-145.25;73.79
54146;BME280;40052;49.422;7.738;2022-09-09T01:34:18;73805.94;;;-145.25;73.83
54146;BME280;40052;49.422;7.738;2022-09-09T01:36:56;73807.94;;;-145.25;73.88
54146;BME280;40052;49.422;7.738;2022-09-09T01:39:26;73819.94;;;-145.25;73.99
54146;BME280;40052;49.422;7.738;2022-09-09T01:41:52;73829.97;;;-145.25;74.25
54146;BME280;40052;49.422;7.738;2022-09-09T01:44:20;73823.97;;;-145.25;74.07
54146;BME280;40052;49.422;7.738;2022-09-09T01:46:46;73823.97;;;-145.25;74.15
54146;BME280;40052;49.422;7.738;2022-09-09T01:49:14;73823.97;;;-145.25;74.05
54146;BME280;40052;49.422;7.738;2022-09-09T01:51:41;73837.97;;;-145.25;74.59
54146;BME280;40052;49.422;7.738;2022-09-09T01:54:08;73840.00;;;-145.25;75.04
54146;BME280;40052;49.422;7.738;2022-09-09T01:56:50;73837.97;;;-145.25;74.41
54146;BME280;40052;49.422;7.738;2022-09-09T02:04:43;73840.00;;;-145.25;74.87
54146;BME280;40052;49.422;7.738;2022-09-09T02:09:59;73858.03;;;-145.25;75.41
54146;BME280;40052;49.422;7.738;2022-09-09T02:12:27;73858.03;;;-145.25;75.67
54146;BME280;40052;49.422;7.738;2022-09-09T02:15:11;73858.03;;;-145.25;75.44
54146;BME280;40052;49.422;7.738;2022-09-09T02:17:45;73848.00;;;-145.25;75.31
54146;BME280;40052;49.422;7.738;2022-09-09T02:20:13;73860.03;;;-145.25;75.63
54146;BME280;40052;49.422;7.738;2022-09-09T02:22:43;73858.03;;;-145.25;75.74
54146;BME280;40052;49.422;7.738;2022-09-09T02:25:13;73872.03;;;-145.25;75.78
54146;BME280;40052;49.422;7.738;2022-09-09T02:27:41;73870.03;;;-145.25;76.02
54146;BME280;40052;49.422;7.738;2022-09-09T02:30:12;73866.03;;;-145.25;75.82
54146;BME280;40052;49.422;7.738;2022-09-09T02:32:39;73870.03;;;-145.25;76.09
54146;BME280;40052;49.422;7.738;2022-09-09T02:35:10;73878.06;;;-145.25;76.20
54146;BME280;40052;49.422;7.738;2022-09-09T02:37:41;73864.03;;;-145.25;75.86
54146;BME280;40052;49.422;7.738;2022-09-09T02:40:09;73874.03;;;-145.25;75.97
54146;BME280;40052;49.422;7.738;2022-09-09T02:42:40;73868.03;;;-145.25;76.02
54146;BME280;40052;49.422;7.738;2022-09-09T02:45:07;73876.06;;;-145.25;76.15
54146;BME280;40052;49.422;7.738;2022-09-09T02:47:39;73858.03;;;-145.25;75.78
54146;BME280;40052;49.422;7.738;2022-09-09T02:50:14;73874.03;;;-145.25;75.80
54146;BME280;40052;49.422;7.738;2022-09-09T02:53:07;73870.03;;;-145.25;76.00
54146;BME280;40052;49.422;7.738;2022-09-09T02:55:57;73860.03;;;-145.25;75.79
54146;BME280;40052;49.422;7.738;2022-09-09T02:58:24;73874.03;;;-145.25;76.14
54146;BME280;40052;49.422;7.738;2022-09-09T03:00:53;73884.06;;;-145.25;76.28
54146;BME280;40052;49.422;7.738;2022-09-09T03:03:19;73872.03;;;-145.25;76.16
54146;BME280;40052;49.422;7.738;2022-09-09T03:05:48;73878.06;;;-145.25;76.33
54146;BME280;40052;49.422;7.738;2022-09-09T03:08:13;73880.06;;;-145.25;76.04
54146;BME280;40052;49.422;7.738;2022-09-09T03:10:42;73870.03;;;-145.25;76.14
54146;BME280;40052;49.422;7.738;2022-09-09T03:13:10;73882.06;;;-145.25;76.38
54146;BME280;40052;49.422;7.738;2022-09-09T03:15:40;73868.03;;;-145.25;75.95
54146;BME280;40052;49.422;7.738;2022-09-09T03:18:08;73874.03;;;-145.25;75.86
54146;BME280;40052;49.422;7.738;2022-09-09T03:20:33;73876.06;;;-145.25;75.93
54146;BME280;40052;49.422;7.738;2022-09-09T03:23:01;73894.09;;;-145.25;76.33
54146;BME280;40052;49.422;7.738;2022-09-09T03:25:27;73892.06;;;-145.25;76.26
54146;BME280;40052;49.422;7.738;2022-09-09T03:27:55;73900.09;;;-145.25;76.84
54146;BME280;40052;49.422;7.738;2022-09-09T03:30:24;73892.06;;;-145.25;76.76
54146;BME280;40052;49.422;7.738;2022-09-09T03:32:55;73900.09;;;-145.25;76.74
54146;BME280;40052;49.422;7.738;2022-09-09T03:35:20;73898.09;;;-145.25;76.39
54146;BME280;40052;49.422;7.738;2022-09-09T03:37:46;73902.09;;;-145.25;76.69
54146;BME280;40052;49.422;7.738;2022-09-09T03:40:12;73900.09;;;-145.25;76.95
54146;BME280;40052;49.422;7.738;2022-09-09T03:42:40;73906.09;;;-145.25;77.14
54146;BME280;40052;49.422;7.738;2022-09-09T03:45:07;73908.09;;;-145.25;77.07
54146;BME280;40052;49.422;7.738;2022-09-09T03:47:34;73906.09;;;-145.25;77.11
54146;BME280;40052;49.422;7.738;2022-09-09T03:50:03;73896.09;;;-145.25;77.00
54146;BME280;40052;49.422;7.738;2022-09-09T03:52:29;73904.09;;;-145.25;77.21
54146;BME280;40052;49.422;7.738;2022-09-09T03:54:55;73902.09;;;-145.25;77.26
54146;BME280;40052;49.422;7.738;2022-09-09T03:57:25;73896.09;;;-145.25;77.15
54146;BME280;40052;49.422;7.738;2022-09-09T03:59:51;73902.09;;;-145.25;77.32
54146;BME280;40052;49.422;7.738;2022-09-09T04:02:16;73904.09;;;-145.25;77.37
54146;BME280;40052;49.422;7.738;2022-09-09T04:04:42;73908.09;;;-145.25;77.55
54146;BME280;40052;49.422;7.738;2022-09-09T04:07:07;73908.09;;;-145.25;77.93
54146;BME280;40052;49.422;7.738;2022-09-09T04:09:33;73924.13;;;-145.25;78.28
54146;BME280;40052;49.422;7.738;2022-09-09T04:11:58;73924.13;;;-145.25;78.57
54146;BME280;40052;49.422;7.738;2022-09-09T04:14:24;73912.13;;;-145.25;78.18
54146;BME280;40052;49.422;7.738;2022-09-09T04:16:54;73912.13;;;-145.25;78.30
54146;BME280;40052;49.422;7.738;2022-09-09T04:19:19;73918.13;;;-145.25;78.33
54146;BME280;40052;49.422;7.738;2022-09-09T04:21:44;73916.13;;;-145.25;78.57
54146;BME280;40052;49.422;7.738;2022-09-09T04:24:10;73916.13;;;-145.25;78.66
54146;BME280;40052;49.422;7.738;2022-09-09T04:26:36;73924.13;;;-145.25;78.81
54146;BME280;40052;49.422;7.738;2022-09-09T04:29:03;73924.13;;;-145.25;79.07
54146;BME280;40052;49.422;7.738;2022-09-09T04:31:29;73924.13;;;-145.25;78.89
54146;BME280;40052;49.422;7.738;2022-09-09T04:33:56;73948.19;;;-145.25;79.36
54146;BME280;40052;49.422;7.738;2022-09-09T04:36:22;73940.16;;;-145.25;79.59
54146;BME280;40052;49.422;7.738;2022-09-09T04:38:47;73944.16;;;-145.25;79.46
54146;BME280;40052;49.422;7.738;2022-09-09T04:41:15;73936.16;;;-145.25;79.80
54146;BME280;40052;49.422;7.738;2022-09-09T04:43:41;73938.16;;;-145.25;79.60
54146;BME280;40052;49.422;7.738;2022-09-09T04:46:07;73952.19;;;-145.25;80.08
54146;BME280;40052;49.422;7.738;2022-09-09T04:48:33;73956.19;;;-145.25;80.58
54146;BME280;40052;49.422;7.738;2022-09-09T04:51:06;73946.19;;;-145.25;80.35
54146;BME280;40052;49.422;7.738;2022-09-09T04:53:34;73944.16;;;-145.25;80.20
54146;BME280;40052;49.422;7.738;2022-09-09T04:56:10;73942.16;;;-145.25;80.19
54146;BME280;40052;49.422;7.738;2022-09-09T04:58:39;73942.16;;;-145.25;80.14
54146;BME280;40052;49.422;7.738;2022-09-09T05:03:37;73954.19;;;-145.25;80.57
54146;BME280;40052;49.422;7.738;2022-09-09T05:06:21;73938.16;;;-145.25;79.91
54146;BME280;40052;49.422;7.738;2022-09-09T05:08:47;73944.16;;;-145.25;80.22
54146;BME280;40052;49.422;7.738;2022-09-09T05:13:50;73936.16;;;-145.25;80.43
54146;BME280;40052;49.422;7.738;2022-09-09T05:16:16;73930.16;;;-145.25;79.92
54146;BME280;40052;49.422;7.738;2022-09-09T05:18:42;73934.16;;;-145.25;79.86
54146;BME280;40052;49.422;7.738;2022-09-09T05:21:11;73940.16;;;-145.25;80.17
54146;BME280;40052;49.422;7.738;2022-09-09T05:23:36;73924.13;;;-145.25;79.75
54146;BME280;40052;49.422;7.738;2022-09-09T05:26:03;73928.16;;;-145.25;79.98
54146;BME280;40052;49.422;7.738;2022-09-09T05:28:28;73924.13;;;-145.25;80.02
54146;BME280;40052;49.422;7.738;2022-09-09T05:31:02;73920.13;;;-145.25;79.83
54146;BME280;40052;49.422;7.738;2022-09-09T05:33:30;73900.09;;;-145.25;79.28
54146;BME280;40052;49.422;7.738;2022-09-09T05:38:27;73912.13;;;-145.25;79.44
54146;BME280;40052;49.422;7.738;2022-09-09T05:40:53;73898.09;;;-145.25;79.15
54146;BME280;40052;49.422;7.738;2022-09-09T05:43:24;73892.06;;;-145.25;79.02
54146;BME280;40052;49.422;7.738;2022-09-09T05:46:08;73878.06;;;-145.25;78.64
54146;BME280;40052;49.422;7.738;2022-09-09T05:48:38;73884.06;;;-145.25;78.21
54146;BME280;40052;49.422;7.738;2022-09-09T05:51:08;73882.06;;;-145.25;78.07
54146;BME280;40052;49.422;7.738;2022-09-09T05:53:37;73890.06;;;-145.25;78.16
54146;BME280;40052;49.422;7.738;2022-09-09T05:56:04;73894.09;;;-145.25;78.58
54146;BME280;40052;49.422;7.738;2022-09-09T05:58:32;73884.06;;;-145.25;77.97
54146;BME280;40052;49.422;7.738;2022-09-09T06:01:08;73892.06;;;-145.25;78.16
54146;BME280;40052;49.422;7.738;2022-09-09T06:03:36;73870.03;;;-145.25;78.24
54146;BME280;40052;49.422;7.738;2022-09-09T06:06:04;73882.06;;;-145.25;78.19
54146;BME280;40052;49.422;7.738;2022-09-09T06:08:36;73886.06;;;-145.25;79.77
54146;BME280;40052;49.422;7.738;2022-09-09T06:11:09;73906.09;;;-145.25;81.25
54146;BME280;40052;49.422;7.738;2022-09-09T06:13:36;73914.13;;;-145.25;82.64
54146;BME280;40052;49.422;7.738;2022-09-09T06:16:18;73928.16;;;-145.25;84.52
54146;BME280;40052;49.422;7.738;2022-09-09T06:18:43;73926.13;;;-145.25;84.17
54146;BME280;40052;49.422;7.738;2022-09-09T06:21:18;73932.16;;;-145.25;84.44
54146;BME280;40052;49.422;7.738;2022-09-09T06:23:43;73932.16;;;-145.25;84.80
54146;BME280;40052;49.422;7.738;2022-09-09T06:26:14;73938.16;;;-145.25;84.24
54146;BME280;40052;49.422;7.738;2022-09-09T06:28:40;73928.16;;;-145.25;84.11
54146;BME280;40052;49.422;7.738;2022-09-09T06:31:11;73920.13;;;-145.25;83.82
54146;BME280;40052;49.422;7.738;2022-09-09T06:33:40;73916.13;;;-145.25;84.39
54146;BME280;40052;49.422;7.738;2022-09-09T06:36:33;73910.13;;;-145.25;83.69
54146;BME280;40052;49.422;7.738;2022-09-09T06:38:59;73908.09;;;-145.25;84.27
54146;BME280;40052;49.422;7.738;2022-09-09T06:41:27;73906.09;;;-145.25;84.07
54146;BME280;40052;49.422;7.738;2022-09-09T06:43:52;73916.13;;;-145.25;83.90
54146;BME280;40052;49.422;7.738;2022-09-09T06:46:23;73896.09;;;-145.25;83.98
54146;BME280;40052;49.422;7.738;2022-09-09T06:48:52;73890.06;;;-145.25;83.94
54146;BME280;40052;49.422;7.738;2022-09-09T06:51:24;73888.06;;;-145.25;83.63
54146;BME280;40052;49.422;7.738;2022-09-09T06:53:55;73886.06;;;-145.25;83.41
54146;BME280;40052;49.422;7.738;2022-09-09T06:58:54;73872.03;;;-145.25;82.72
54146;BME280;40052;49.422;7.738;2022-09-09T07:01:25;73844.00;;;-145.25;82.51
54146;BME280;40052;49.422;7.738;2022-09-09T07:03:55;73848.00;;;-145.25;83.22
54146;BME280;40052;49.422;7.738;2022-09-09T07:06:26;73835.97;;;-145.25;81.76
54146;BME280;40052;49.422;7.738;2022-09-09T07:08:59;73825.97;;;-145.25;82.46
54146;BME280;40052;49.422;7.738;2022-09-09T07:11:30;73844.00;;;-145.25;82.13
54146;BME280;40052;49.422;7.738;2022-09-09T07:13:59;73837.97;;;-145.25;81.96
54146;BME280;40052;49.422;7.738;2022-09-09T07:16:25;73831.97;;;-145.25;82.32
54146;BME280;40052;49.422;7.738;2022-09-09T07:18:53;73817.94;;;-145.25;82.17
54146;BME280;40052;49.422;7.738;2022-09-09T07:21:26;73817.94;;;-145.25;81.16
54146;BME280;40052;49.422;7.738;2022-09-09T07:23:53;73819.94;;;-145.25;80.60
54146;BME280;40052;49.422;7.738;2022-09-09T07:26:21;73815.94;;;-145.25;81.16
54146;BME280;40052;49.422;7.738;2022-09-09T07:28:48;73807.94;;;-145.25;80.56
54146;BME280;40052;49.422;7.738;2022-09-09T07:31:16;73821.97;;;-145.25;81.23
54146;BME280;40052;49.422;7.738;2022-09-09T07:33:43;73825.97;;;-145.25;80.58
54146;BME280;40052;49.422;7.738;2022-09-09T07:38:48;73823.97;;;-145.25;80.80
54146;BME280;40052;49.422;7.738;2022-09-09T07:41:30;73807.94;;;-145.25;80.98
54146;BME280;40052;49.422;7.738;2022-09-09T07:43:57;73799.91;;;-145.25;79.84
54146;BME280;40052;49.422;7.738;2022-09-09T07:46:26;73789.91;;;-145.25;79.30
54146;BME280;40052;49.422;7.738;2022-09-09T07:48:56;73771.88;;;-145.25;78.72
54146;BME280;40052;49.422;7.738;2022-09-09T07:51:29;73759.84;;;-145.25;78.87
54146;BME280;40052;49.422;7.738;2022-09-09T07:53:59;73763.84;;;-145.25;78.39
54146;BME280;40052;49.422;7.738;2022-09-09T07:56:27;73775.88;;;-145.25;78.79
54146;BME280;40052;49.422;7.738;2022-09-09T07:58:58;73785.88;;;-145.25;78.01
54146;BME280;40052;49.422;7.738;2022-09-09T08:01:37;73761.84;;;-145.25;78.29
54146;BME280;40052;49.422;7.738;2022-09-09T08:04:08;73787.91;;;-145.25;79.23
54146;BME280;40052;49.422;7.738;2022-09-09T08:06:37;73801.91;;;-145.25;78.72
54146;BME280;40052;49.422;7.738;2022-09-09T08:09:04;73799.91;;;-145.25;79.13
54146;BME280;40052;49.422;7.738;2022-09-09T08:11:32;73801.91;;;-145.25;78.16
54146;BME280;40052;49.422;7.738;2022-09-09T08:13:58;73789.91;;;-145.25;78.05
54146;BME280;40052;49.422;7.738;2022-09-09T08:16:29;73769.88;;;-145.25;77.40
54146;BME280;40052;49.422;7.738;2022-09-09T08:18:56;73767.84;;;-145.25;76.71
54146;BME280;40052;49.422;7.738;2022-09-09T08:21:24;73771.88;;;-145.25;76.98
54146;BME280;40052;49.422;7.738;2022-09-09T08:23:51;73765.84;;;-145.25;77.64
54146;BME280;40052;49.422;7.738;2022-09-09T08:26:31;73761.84;;;-145.25;75.62
54146;BME280;40052;49.422;7.738;2022-09-09T08:28:58;73757.84;;;-145.25;75.68
54146;BME280;40052;49.422;7.738;2022-09-09T08:31:31;73743.81;;;-145.25;74.08
54146;BME280;40052;49.422;7.738;2022-09-09T08:33:59;73737.81;;;-145.25;73.70
54146;BME280;40052;49.422;7.738;2022-09-09T08:36:27;73743.81;;;-145.25;73.83
54146;BME280;40052;49.422;7.738;2022-09-09T08:38:57;73735.81;;;-145.25;72.70
54146;BME280;40052;49.422;7.738;2022-09-09T08:55:37;73705.75;;;-145.25;69.51
54146;BME280;40052;49.422;7.738;2022-09-09T08:58:28;73705.75;;;-145.25;69.57
54146;BME280;40052;49.422;7.738;2022-09-09T09:03:47;73721.78;;;-145.25;69.71
54146;BME280;40052;49.422;7.738;2022-09-09T09:11:45;73643.66;;;-145.25;65.54
54146;BME280;40052;49.422;7.738;2022-09-09T09:14:16;73635.63;;;-145.25;66.62
54146;BME280;40052;49.422;7.738;2022-09-09T09:19:33;73657.66;;;-145.25;66.29
54146;BME280;40052;49.422;7.738;2022-09-09T09:25:05;73689.72;;;-145.25;70.30
54146;BME280;40052;49.422;7.738;2022-09-09T09:30:17;73697.75;;;-145.25;69.95
54146;BME280;40052;49.422;7.738;2022-09-09T09:32:55;73627.63;;;-145.25;68.26
54146;BME280;40052;49.422;7.738;2022-09-09T09:35:25;73621.59;;;-145.25;66.84
54146;BME280;40052;49.422;7.738;2022-09-09T09:37:50;73561.50;;;-145.25;65.84
54146;BME280;40052;49.422;7.738;2022-09-09T09:40:18;73559.50;;;-145.25;65.79
54146;BME280;40052;49.422;7.738;2022-09-09T09:43:02;73531.44;;;-145.25;65.96
54146;BME280;40052;49.422;7.738;2022-09-09T09:45:35;73513.41;;;-145.25;63.50
54146;BME280;40052;49.422;7.738;2022-09-09T09:48:09;73523.44;;;-145.25;64.76
54146;BME280;40052;49.422;7.738;2022-09-09T09:50:47;73525.44;;;-145.25;63.43
54146;BME280;40052;49.422;7.738;2022-09-09T09:53:21;73571.53;;;-145.25;64.33
54146;BME280;40052;49.422;7.738;2022-09-09T09:55:55;73547.47;;;-145.25;63.64
54146;BME280;40052;49.422;7.738;2022-09-09T09:58:21;73555.50;;;-145.25;64.48
54146;BME280;40052;49.422;7.738;2022-09-09T10:00:51;73583.53;;;-145.25;63.17
54146;BME280;40052;49.422;7.738;2022-09-09T10:03:33;73609.59;;;-145.25;64.20
54146;BME280;40052;49.422;7.738;2022-09-09T10:06:03;73581.53;;;-145.25;62.35
54146;BME280;40052;49.422;7.738;2022-09-09T10:08:34;73503.41;;;-145.25;62.68
54146;BME280;40052;49.422;7.738;2022-09-09T10:11:41;73473.34;;;-145.25;59.75
54146;BME280;40052;49.422;7.738;2022-09-09T10:14:21;73413.25;;;-145.25;59.22
54146;BME280;40052;49.422;7.738;2022-09-09T10:19:34;73405.25;;;-145.25;57.16
54146;BME280;40052;49.422;7.738;2022-09-09T10:22:26;73407.25;;;-145.25;57.80
54146;BME280;40052;49.422;7.738;2022-09-09T10:30:46;73385.22;;;-145.25;58.46
54146;BME280;40052;49.422;7.738;2022-09-09T10:36:17;73439.28;;;-145.25;57.51
54146;BME280;40052;49.422;7.738;2022-09-09T10:38:59;73467.34;;;-145.25;58.12
54146;BME280;40052;49.422;7.738;2022-09-09T10:42:03;73497.41;;;-145.25;59.19
54146;BME280;40052;49.422;7.738;2022-09-09T10:44:50;73519.44;;;-145.25;60.39
54146;BME280;40052;49.422;7.738;2022-09-09T10:53:05;73569.50;;;-145.25;63.83
54146;BME280;40052;49.422;7.738;2022-09-09T10:55:39;73597.56;;;-145.25;64.30
54146;BME280;40052;49.422;7.738;2022-09-09T10:58:05;73615.59;;;-145.25;65.39
54146;BME280;40052;49.422;7.738;2022-09-09T11:03:02;73597.56;;;-145.25;64.61
54146;BME280;40052;49.422;7.738;2022-09-09T11:05:36;73569.50;;;-145.25;64.30
54146;BME280;40052;49.422;7.738;2022-09-09T11:11:19;73509.41;;;-145.25;62.44
54146;BME280;40052;49.422;7.738;2022-09-09T11:18:49;73421.28;;;-145.25;55.77
54146;BME280;40052;49.422;7.738;2022-09-09T11:21:27;73361.16;;;-145.25;54.65
54146;BME280;40052;49.422;7.738;2022-09-09T11:24:02;73405.25;;;-145.25;54.73
54146;BME280;40052;49.422;7.738;2022-09-09T11:26:42;73357.16;;;-145.25;54.25
54146;BME280;40052;49.422;7.738;2022-09-09T11:29:34;73351.16;;;-145.25;53.57
54146;BME280;40052;49.422;7.738;2022-09-09T11:32:29;73351.16;;;-145.25;54.02
54146;BME280;40052;49.422;7.738;2022-09-09T11:40:23;73301.06;;;-145.25;53.50
54146;BME280;40052;49.422;7.738;2022-09-09T11:43:02;73238.97;;;-145.25;53.12
54146;BME280;40052;49.422;7.738;2022-09-09T11:45:29;73265.00;;;-145.25;52.96
54146;BME280;40052;49.422;7.738;2022-09-09T11:48:03;73202.91;;;-145.25;52.08
54146;BME280;40052;49.422;7.738;2022-09-09T11:50:37;73285.03;;;-145.25;53.51
54146;BME280;40052;49.422;7.738;2022-09-09T11:53:21;73325.09;;;-145.25;54.23
54146;BME280;40052;49.422;7.738;2022-09-09T11:55:48;73379.19;;;-145.25;57.61
54146;BME280;40052;49.422;7.738;2022-09-09T11:58:27;73431.28;;;-145.25;60.55
54146;BME280;40052;49.422;7.738;2022-09-09T12:00:58;73501.41;;;-145.25;62.89
54146;BME280;40052;49.422;7.738;2022-09-09T12:03:46;73577.53;;;-145.25;64.80
54146;BME280;40052;49.422;7.738;2022-09-09T12:06:17;73653.66;;;-145.25;65.89
54146;BME280;40052;49.422;7.738;2022-09-09T12:08:48;73823.97;;;-145.25;73.85
54146;BME280;40052;49.422;7.738;2022-09-09T12:11:27;73936.16;;;-145.25;75.83
54146;BME280;40052;49.422;7.738;2022-09-09T12:14:00;73960.19;;;-145.25;82.42
54146;BME280;40052;49.422;7.738;2022-09-09T12:16:34;73952.19;;;-145.25;82.89
54146;BME280;40052;49.422;7.738;2022-09-09T12:24:37;73898.09;;;-145.25;83.86
54146;BME280;40052;49.422;7.738;2022-09-09T12:27:22;73898.09;;;-145.25;79.15
54146;BME280;40052;49.422;7.738;2022-09-09T12:30:01;73886.06;;;-145.25;80.30
54146;BME280;40052;49.422;7.738;2022-09-09T12:32:28;73874.03;;;-145.25;81.73
54146;BME280;40052;49.422;7.738;2022-09-09T12:35:21;73835.97;;;-145.25;83.08
54146;BME280;40052;49.422;7.738;2022-09-09T12:37:52;73793.91;;;-145.25;81.42
54146;BME280;40052;49.422;7.738;2022-09-09T12:42:56;73691.72;;;-145.25;76.59
54146;BME280;40052;49.422;7.738;2022-09-09T12:45:24;73643.66;;;-145.25;76.69
54146;BME280;40052;49.422;7.738;2022-09-09T12:52:56;73507.41;;;-145.25;73.21
54146;BME280;40052;49.422;7.738;2022-09-09T12:55:31;73495.38;;;-145.25;73.06
54146;BME280;40052;49.422;7.738;2022-09-09T12:58:00;73491.38;;;-145.25;72.48
54146;BME280;40052;49.422;7.738;2022-09-09T13:00:29;73479.38;;;-145.25;71.45
54146;BME280;40052;49.422;7.738;2022-09-09T13:02:57;73499.41;;;-145.25;72.13
54146;BME280;40052;49.422;7.738;2022-09-09T13:07:50;73519.44;;;-145.25;70.92
54146;BME280;40052;49.422;7.738;2022-09-09T13:10:22;73521.44;;;-145.25;71.61
54146;BME280;40052;49.422;7.738;2022-09-09T13:12:48;73539.47;;;-145.25;75.34
54146;BME280;40052;49.422;7.738;2022-09-09T13:15:20;73551.50;;;-145.25;73.70
54146;BME280;40052;49.422;7.738;2022-09-09T13:17:53;73581.53;;;-145.25;73.77
54146;BME280;40052;49.422;7.738;2022-09-09T13:20:20;73569.50;;;-145.25;75.54
54146;BME280;40052;49.422;7.738;2022-09-09T13:22:50;73545.47;;;-145.25;77.84
54146;BME280;40052;49.422;7.738;2022-09-09T13:25:28;73393.22;;;-145.25;75.24
54146;BME280;40052;49.422;7.738;2022-09-09T13:27:58;73315.09;;;-145.25;72.46
54146;BME280;40052;49.422;7.738;2022-09-09T13:30:28;73261.00;;;-145.25;66.75
54146;BME280;40052;49.422;7.738;2022-09-09T13:35:55;73232.97;;;-145.25;64.43
54146;BME280;40052;49.422;7.738;2022-09-09T13:38:21;73248.97;;;-145.25;65.59
54146;BME280;40052;49.422;7.738;2022-09-09T13:41:06;73269.00;;;-145.25;68.56
54146;BME280;40052;49.422;7.738;2022-09-09T13:43:45;73351.16;;;-145.25;66.65
54146;BME280;40052;49.422;7.738;2022-09-09T13:46:40;73397.22;;;-145.25;68.51
54146;BME280;40052;49.422;7.738;2022-09-09T13:51:39;73307.06;;;-145.25;65.62
54146;BME280;40052;49.422;7.738;2022-09-09T13:54:11;73373.19;;;-145.25;62.79
54146;BME280;40052;49.422;7.738;2022-09-09T13:56:38;73409.25;;;-145.25;63.24
54146;BME280;40052;49.422;7.738;2022-09-09T13:59:11;73421.28;;;-145.25;65.27
54146;BME280;40052;49.422;7.738;2022-09-09T14:01:39;73451.31;;;-145.25;66.32
54146;BME280;40052;49.422;7.738;2022-09-09T14:04:06;73475.34;;;-145.25;68.64
54146;BME280;40052;49.422;7.738;2022-09-09T14:06:37;73481.38;;;-145.25;66.37
54146;BME280;40052;49.422;7.738;2022-09-09T14:09:07;73491.38;;;-145.25;66.86
54146;BME280;40052;49.422;7.738;2022-09-09T14:11:34;73509.41;;;-145.25;68.52
54146;BME280;40052;49.422;7.738;2022-09-09T14:14:00;73521.44;;;-145.25;68.33
54146;BME280;40052;49.422;7.738;2022-09-09T14:16:26;73543.47;;;-145.25;70.28
54146;BME280;40052;49.422;7.738;2022-09-09T14:18:53;73551.50;;;-145.25;68.84
54146;BME280;40052;49.422;7.738;2022-09-09T14:21:20;73565.50;;;-145.25;70.63
54146;BME280;40052;49.422;7.738;2022-09-09T14:23:46;73563.50;;;-145.25;67.90
54146;BME280;40052;49.422;7.738;2022-09-09T14:26:12;73553.50;;;-145.25;67.74
54146;BME280;40052;49.422;7.738;2022-09-09T14:28:40;73569.50;;;-145.25;67.27
54146;BME280;40052;49.422;7.738;2022-09-09T14:31:09;73587.56;;;-145.25;68.66
54146;BME280;40052;49.422;7.738;2022-09-09T14:33:38;73599.56;;;-145.25;67.47
54146;BME280;40052;49.422;7.738;2022-09-09T14:36:06;73575.53;;;-145.25;67.71
54146;BME280;40052;49.422;7.738;2022-09-09T14:38:34;73483.38;;;-145.25;64.73
54146;BME280;40052;49.422;7.738;2022-09-09T14:41:06;73407.25;;;-145.25;62.02
54146;BME280;40052;49.422;7.738;2022-09-09T14:43:32;73333.13;;;-145.25;59.31
54146;BME280;40052;49.422;7.738;2022-09-09T14:46:04;73283.03;;;-145.25;58.39
54146;BME280;40052;49.422;7.738;2022-09-09T14:48:30;73234.97;;;-145.25;56.38
54146;BME280;40052;49.422;7.738;2022-09-09T14:50:56;73232.97;;;-145.25;57.48
54146;BME280;40052;49.422;7.738;2022-09-09T14:53:24;73208.91;;;-145.25;56.02
54146;BME280;40052;49.422;7.738;2022-09-09T14:55:52;73206.91;;;-145.25;55.24
54146;BME280;40052;49.422;7.738;2022-09-09T14:58:17;73194.91;;;-145.25;54.58
54146;BME280;40052;49.422;7.738;2022-09-09T15:00:42;73166.84;;;-145.25;54.36
54146;BME280;40052;49.422;7.738;2022-09-09T15:03:09;73134.81;;;-145.25;54.04
54146;BME280;40052;49.422;7.738;2022-09-09T15:05:36;73116.78;;;-145.25;53.51
54146;BME280;40052;49.422;7.738;2022-09-09T15:08:03;73228.94;;;-145.25;54.04
54146;BME280;40052;49.422;7.738;2022-09-09T15:10:29;73234.97;;;-145.25;54.42
54146;BME280;40052;49.422;7.738;2022-09-09T15:12:56;73253.00;;;-145.25;56.12
54146;BME280;40052;49.422;7.738;2022-09-09T15:15:22;73321.09;;;-145.25;56.86
54146;BME280;40052;49.422;7.738;2022-09-09T15:17:47;73311.09;;;-145.25;56.70